Time;durP1;ratioP1;P1;durP2;ratioP2;P2;SDS_P1;SDS_P2;PMS_P1;PMS_P2;Temp;Humidity;BMP_temperature;BMP_pressure;BME280_temperature;BME280_humidity;BME280_pressure;Samples;Min_cycle;Max_cycle;Signal;HPM_P1;HPM_P2
2023/03/19 00:00:07;;;;;;;10.38;6.47;;;9.10;99.90;;;;;;5005474;28;20394;-81
2023/03/19 00:02:34;;;;;;;8.68;5.20;;;9.10;99.90;;;;;;5005286;28;20042;-81
2023/03/19 00:05:01;;;;;;;8.15;4.60;;;9.00;99.90;;;;;;5005337;28;20041;-81
2023/03/19 00:07:27;;;;;;;9.10;5.13;;;9.00;99.90;;;;;;5005758;28;20045;-81
2023/03/19 00:09:54;;;;;;;9.52;4.75;;;9.10;99.90;;;;;;5005511;28;20049;-81
2023/03/19 00:12:20;;;;;;;13.00;5.10;;;9.10;99.90;;;;;;4984607;28;20037;-81
2023/03/19 00:14:46;;;;;;;11.02;5.80;;;9.20;99.90;;;;;;4983692;28;20065;-81
2023/03/19 00:17:12;;;;;;;10.23;5.35;;;9.20;99.90;;;;;;5005808;28;20451;-81
2023/03/19 00:19:38;;;;;;;11.30;4.57;;;9.10;99.90;;;;;;5002186;28;20102;-82
2023/03/19 00:22:04;;;;;;;9.80;4.28;;;9.00;99.90;;;;;;4970608;28;20038;-81
2023/03/19 00:24:34;;;;;;;7.95;4.22;;;9.00;99.90;;;;;;5002481;28;20042;-81
2023/03/19 00:27:01;;;;;;;10.70;4.30;;;9.00;99.90;;;;;;5003824;28;20053;-81
2023/03/19 00:29:28;;;;;;;9.02;4.82;;;9.00;99.90;;;;;;5005548;28;20046;-81
2023/03/19 00:31:54;;;;;;;9.70;4.95;;;9.00;99.90;;;;;;5002150;28;20387;-81
2023/03/19 00:34:21;;;;;;;8.52;4.85;;;9.00;99.90;;;;;;5004061;28;20034;-81
2023/03/19 00:36:48;;;;;;;7.38;4.63;;;9.00;99.90;;;;;;5003099;28;20042;-82
2023/03/19 00:39:14;;;;;;;10.00;5.65;;;9.00;99.90;;;;;;5003599;28;20046;-81
2023/03/19 00:41:41;;;;;;;6.80;4.25;;;8.90;99.90;;;;;;5005541;28;20030;-81
2023/03/19 00:44:07;;;;;;;12.30;5.28;;;8.90;99.90;;;;;;5005032;28;20041;-82
2023/03/19 00:46:33;;;;;;;6.22;4.35;;;8.80;99.90;;;;;;5004468;28;20044;-82
2023/03/19 00:49:00;;;;;;;13.90;5.70;;;8.70;99.90;;;;;;5006373;28;20063;-82
2023/03/19 00:51:26;;;;;;;9.80;4.68;;;8.70;99.90;;;;;;4998098;28;20044;-80
2023/03/19 00:53:52;;;;;;;9.82;5.22;;;8.80;99.90;;;;;;5015726;28;20025;-81
2023/03/19 00:56:19;;;;;;;7.60;4.65;;;8.80;99.90;;;;;;5003251;28;20471;-81
2023/03/19 00:58:46;;;;;;;11.23;4.75;;;8.80;99.90;;;;;;5005704;28;20387;-81
2023/03/19 01:01:15;;;;;;;8.32;4.55;;;8.90;99.90;;;;;;4972199;28;20049;-82
2023/03/19 01:03:43;;;;;;;9.23;5.05;;;8.90;99.90;;;;;;4999375;28;20049;-81
2023/03/19 01:06:10;;;;;;;11.98;4.75;;;8.90;99.90;;;;;;4976664;28;20395;-81
2023/03/19 01:08:37;;;;;;;9.48;4.78;;;9.00;99.90;;;;;;4996528;28;20038;-81
2023/03/19 01:11:05;;;;;;;7.97;4.07;;;9.00;99.90;;;;;;5001374;28;20042;-81
2023/03/19 01:13:32;;;;;;;9.20;4.57;;;9.00;99.90;;;;;;4984394;28;20064;-82
2023/03/19 01:15:58;;;;;;;8.27;4.40;;;9.00;99.90;;;;;;5000779;28;20403;-82
2023/03/19 01:18:24;;;;;;;10.60;4.80;;;9.00;99.90;;;;;;5003638;28;20399;-81
2023/03/19 01:20:51;;;;;;;10.75;5.20;;;8.90;99.90;;;;;;5004325;28;20026;-82
2023/03/19 01:23:17;;;;;;;10.32;5.13;;;8.90;99.90;;;;;;4987742;28;20057;-81
2023/03/19 01:25:44;;;;;;;9.70;4.82;;;8.80;99.90;;;;;;4985648;28;20037;-81
2023/03/19 01:28:10;;;;;;;10.93;5.68;;;8.80;99.90;;;;;;4999925;28;20062;-81
2023/03/19 01:30:39;;;;;;;6.47;4.00;;;8.80;1.00;;;;;;4970383;28;20048;-81
2023/03/19 01:33:36;;;;;;;8.30;3.80;;;8.70;1.00;;;;;;4947410;28;20046;-81
2023/03/19 01:36:10;;;;;;;9.98;4.90;;;8.60;1.00;;;;;;4995442;28;20046;-81
2023/03/19 01:38:46;;;;;;;11.40;5.10;;;8.70;1.00;;;;;;4986731;28;20121;-81
2023/03/19 01:41:16;;;;;;;10.80;4.95;;;8.70;1.00;;;;;;4982134;28;20042;-82
2023/03/19 01:43:42;;;;;;;8.55;5.30;;;8.80;1.00;;;;;;4996991;28;20043;-81
2023/03/19 01:46:35;;;;;;;9.27;5.60;;;8.80;1.00;;;;;;4976489;28;20042;-82
2023/03/19 01:49:22;;;;;;;11.93;4.80;;;8.70;1.00;;;;;;5003743;28;20038;-81
2023/03/19 01:51:56;;;;;;;10.73;4.85;;;8.60;1.00;;;;;;5002028;28;20375;-82
2023/03/19 01:54:52;;;;;;;8.77;5.20;;;8.60;1.00;;;;;;5001378;28;20046;-83
2023/03/19 01:57:37;;;;;;;7.43;5.07;;;8.50;1.00;;;;;;4993726;28;20038;-82
2023/03/19 02:00:22;;;;;;;9.73;5.55;;;8.60;1.00;;;;;;5011383;28;20035;-81
2023/03/19 02:02:57;;;;;;;15.65;6.95;;;8.60;1.00;;;;;;4990713;28;20041;-82
2023/03/19 02:05:45;;;;;;;8.65;4.25;;;8.60;1.00;;;;;;4995775;28;20490;-81
2023/03/19 02:08:15;;;;;;;9.77;5.32;;;8.60;1.00;;;;;;4985520;28;20399;-81
2023/03/19 02:10:44;;;;;;;9.70;4.55;;;8.50;1.00;;;;;;4970657;28;20042;-81
2023/03/19 02:13:11;;;;;;;9.07;4.45;;;8.40;1.00;;;;;;5009783;28;20462;-81
2023/03/19 02:15:37;;;;;;;8.30;4.40;;;8.30;1.00;;;;;;5008785;28;20041;-82
2023/03/19 02:18:04;;;;;;;8.77;5.53;;;8.30;1.00;;;;;;4988320;28;20045;-82
2023/03/19 02:20:46;;;;;;;10.15;5.30;;;8.30;1.00;;;;;;4989381;28;20041;-81
2023/03/19 02:23:47;;;;;;;7.47;4.72;;;8.30;1.00;;;;;;5011883;28;20046;-81
2023/03/19 02:26:18;;;;;;;11.90;5.75;;;8.30;1.00;;;;;;5006538;28;20050;-82
2023/03/19 02:28:48;;;;;;;10.75;5.10;;;8.40;1.00;;;;;;5002466;28;20058;-82
2023/03/19 02:31:21;;;;;;;10.48;4.68;;;8.40;1.00;;;;;;5010772;28;20042;-82
2023/03/19 02:34:02;;;;;;;7.50;5.32;;;8.60;1.00;;;;;;5009708;28;20034;-82
2023/03/19 02:36:36;;;;;;;7.93;4.70;;;8.70;1.00;;;;;;5011914;28;20034;-82
2023/03/19 02:39:06;;;;;;;8.40;5.15;;;8.80;1.00;;;;;;5012074;28;20046;-81
2023/03/19 02:41:33;;;;;;;12.43;6.80;;;8.90;1.00;;;;;;5010323;28;20034;-81
2023/03/19 02:44:02;;;;;;;12.80;6.05;;;8.90;1.00;;;;;;5009507;28;20033;-82
2023/03/19 02:46:28;;;;;;;12.02;6.70;;;9.10;99.90;;;;;;5021759;28;20514;-82
2023/03/19 02:48:54;;;;;;;8.60;5.35;;;9.20;99.90;;;;;;5009625;28;20037;-83
2023/03/19 02:51:21;;;;;;;8.25;5.22;;;9.30;99.90;;;;;;4989172;28;20045;-82
2023/03/19 02:53:47;;;;;;;10.27;6.10;;;9.30;99.90;;;;;;5008411;28;20093;-82
2023/03/19 02:56:16;;;;;;;8.93;5.35;;;9.30;99.90;;;;;;5010516;28;20458;-82
2023/03/19 02:58:42;;;;;;;8.80;5.80;;;9.30;99.90;;;;;;5004207;28;20030;-82
2023/03/19 03:01:08;;;;;;;9.30;5.90;;;9.30;99.90;;;;;;5017316;28;20042;-82
2023/03/19 03:03:34;;;;;;;8.70;4.82;;;9.30;99.90;;;;;;5007144;28;20042;-82
2023/03/19 03:06:00;;;;;;;10.15;5.18;;;9.30;99.90;;;;;;5007761;28;20045;-82
2023/03/19 03:08:27;;;;;;;9.85;6.00;;;9.30;99.90;;;;;;5009448;28;20029;-82
2023/03/19 03:10:53;;;;;;;7.97;4.75;;;9.40;99.90;;;;;;5003563;28;20041;-82
2023/03/19 03:13:19;;;;;;;9.48;4.88;;;9.30;99.90;;;;;;5006403;28;20030;-82
2023/03/19 03:15:45;;;;;;;10.50;5.70;;;9.40;99.90;;;;;;5004647;28;20046;-82
2023/03/19 03:18:12;;;;;;;8.60;5.63;;;9.40;99.90;;;;;;4999083;28;20039;-82
2023/03/19 03:20:38;;;;;;;8.13;3.65;;;9.60;99.90;;;;;;5004538;28;20053;-82
2023/03/19 03:23:04;;;;;;;6.30;4.45;;;9.70;99.90;;;;;;5005576;28;20034;-82
2023/03/19 03:25:30;;;;;;;10.20;4.72;;;9.70;99.90;;;;;;5004051;28;20472;-82
2023/03/19 03:27:57;;;;;;;6.10;3.97;;;9.70;99.90;;;;;;5007364;28;20057;-83
2023/03/19 03:30:23;;;;;;;11.30;4.55;;;9.70;99.90;;;;;;5004662;28;20054;-82
2023/03/19 03:32:50;;;;;;;8.13;4.28;;;9.70;99.90;;;;;;5005680;28;20053;-82
2023/03/19 03:35:20;;;;;;;10.18;5.05;;;9.70;99.90;;;;;;4987833;28;20425;-82
2023/03/19 03:37:48;;;;;;;8.15;4.28;;;9.60;99.90;;;;;;4999649;28;20037;-81
2023/03/19 03:40:15;;;;;;;6.80;4.43;;;9.70;99.90;;;;;;4983228;28;20038;-81
2023/03/19 03:42:42;;;;;;;8.32;4.45;;;9.70;99.90;;;;;;4988507;28;20057;-82
2023/03/19 03:45:09;;;;;;;10.50;4.63;;;9.70;99.90;;;;;;5001976;28;20041;-81
2023/03/19 03:47:36;;;;;;;8.18;4.68;;;9.70;99.90;;;;;;5006587;28;20050;-81
2023/03/19 03:50:04;;;;;;;8.57;4.65;;;9.60;99.90;;;;;;5002755;28;20038;-81
2023/03/19 03:52:32;;;;;;;7.95;4.35;;;9.60;99.90;;;;;;4982892;28;20404;-81
2023/03/19 03:54:59;;;;;;;9.23;4.22;;;9.60;99.90;;;;;;4987712;28;20064;-82
2023/03/19 03:57:26;;;;;;;7.97;4.15;;;9.60;99.90;;;;;;4987487;28;20034;-81
2023/03/19 03:59:53;;;;;;;8.70;4.80;;;9.60;99.90;;;;;;4992982;28;20475;-81
2023/03/19 04:02:20;;;;;;;7.38;5.25;;;9.60;99.90;;;;;;4986972;28;20057;-81
2023/03/19 04:04:47;;;;;;;9.63;4.53;;;9.70;99.90;;;;;;5000525;28;20045;-81
2023/03/19 04:07:13;;;;;;;20.77;5.72;;;9.70;99.90;;;;;;5004843;28;20045;-81
2023/03/19 04:09:45;;;;;;;9.13;4.72;;;9.70;99.90;;;;;;5001272;28;20042;-80
2023/03/19 04:12:12;;;;;;;11.90;5.28;;;9.60;99.90;;;;;;5005230;28;20034;-81
2023/03/19 04:14:39;;;;;;;7.80;5.38;;;9.60;99.90;;;;;;4984767;28;20050;-81
2023/03/19 04:17:05;;;;;;;9.93;4.28;;;9.60;99.90;;;;;;4986020;28;20042;-81
2023/03/19 04:19:32;;;;;;;9.13;5.15;;;9.60;99.90;;;;;;4981676;28;20046;-81
2023/03/19 04:22:02;;;;;;;7.65;4.60;;;9.60;99.90;;;;;;4977161;28;20050;-81
2023/03/19 04:24:29;;;;;;;;;;;9.50;99.90;;;;;;5007107;28;20511;-81
2023/03/19 04:26:59;;;;;;;9.32;4.85;;;9.50;1.00;;;;;;4984321;28;19913;-82
2023/03/19 04:29:26;;;;;;;8.75;4.20;;;9.50;1.00;;;;;;4999883;28;20053;-82
2023/03/19 04:31:52;;;;;;;7.10;4.05;;;9.40;1.00;;;;;;4983411;28;20399;-82
2023/03/19 04:34:18;;;;;;;9.25;4.30;;;9.40;1.00;;;;;;4985026;28;20494;-82
2023/03/19 04:36:44;;;;;;;8.20;4.60;;;9.40;1.00;;;;;;4990601;28;20038;-82
2023/03/19 04:39:11;;;;;;;8.90;4.75;;;9.30;1.00;;;;;;5000092;28;20053;-82
2023/03/19 04:41:37;;;;;;;7.82;4.70;;;9.30;1.00;;;;;;4987693;28;20038;-82
2023/03/19 04:44:22;;;;;;;6.70;4.57;;;9.30;1.00;;;;;;4987325;28;20061;-82
2023/03/19 04:46:49;;;;;;;7.65;4.32;;;9.30;1.00;;;;;;4985147;28;20045;-81
2023/03/19 04:49:18;;;;;;;9.55;4.82;;;9.30;1.00;;;;;;4987845;28;20038;-81
2023/03/19 04:51:45;;;;;;;8.48;5.32;;;9.40;1.00;;;;;;5001732;28;20360;-81
2023/03/19 04:54:11;;;;;;;10.55;5.07;;;9.40;1.00;;;;;;4982848;28;20037;-81
2023/03/19 04:56:37;;;;;;;10.57;5.85;;;9.40;1.00;;;;;;5001336;28;20034;-81
2023/03/19 04:59:05;;;;;;;6.75;4.95;;;9.40;1.00;;;;;;5007820;28;20046;-82
2023/03/19 05:01:31;;;;;;;6.85;4.40;;;9.40;1.00;;;;;;5019630;28;20044;-81
2023/03/19 05:04:02;;;;;;;9.50;5.35;;;9.40;1.00;;;;;;4996000;28;20041;-81
2023/03/19 05:06:31;;;;;;;8.23;4.10;;;9.50;1.00;;;;;;4977563;28;20470;-81
2023/03/19 05:08:58;;;;;;;12.52;4.85;;;9.50;1.00;;;;;;4997541;28;20045;-81
2023/03/19 05:11:24;;;;;;;8.50;4.82;;;9.50;1.00;;;;;;5002303;28;20042;-81
2023/03/19 05:14:05;;;;;;;10.48;4.88;;;9.50;1.00;;;;;;5002862;28;20069;-82
2023/03/19 05:16:50;;;;;;;8.98;5.93;;;9.50;1.00;;;;;;4999887;28;20050;-82
2023/03/19 05:19:17;;;;;;;7.07;4.53;;;9.50;1.00;;;;;;4982569;28;20048;-82
2023/03/19 05:21:44;;;;;;;7.65;4.40;;;9.40;1.00;;;;;;5003193;28;20387;-82
2023/03/19 05:24:11;;;;;;;8.90;5.38;;;9.40;1.00;;;;;;4971527;28;20494;-82
2023/03/19 05:26:37;;;;;;;7.47;5.07;;;9.50;1.00;;;;;;4979564;28;20050;-82
2023/03/19 05:29:32;;;;;;;8.73;5.45;;;9.40;1.00;;;;;;4986186;28;20073;-82
2023/03/19 05:32:22;;;;;;;6.30;4.18;;;9.30;1.00;;;;;;5001582;28;20049;-81
2023/03/19 05:34:49;;;;;;;6.72;4.43;;;9.30;1.00;;;;;;4983094;28;20502;-82
2023/03/19 05:37:16;;;;;;;7.70;4.50;;;9.30;1.00;;;;;;5011675;28;20042;-82
2023/03/19 05:39:47;;;;;;;8.20;4.75;;;9.30;1.00;;;;;;4967068;28;20078;-82
2023/03/19 05:42:13;;;;;;;9.07;4.07;;;9.30;1.00;;;;;;5000618;28;20498;-82
2023/03/19 05:44:40;;;;;;;7.03;4.10;;;9.20;1.00;;;;;;4976360;28;20061;-82
2023/03/19 05:47:27;;;;;;;7.82;5.20;;;9.20;1.00;;;;;;4986535;28;20059;-82
2023/03/19 05:49:56;;;;;;;10.57;5.18;;;9.20;1.00;;;;;;5000653;28;20049;-82
2023/03/19 05:52:22;;;;;;;9.63;4.63;;;9.10;1.00;;;;;;5000668;28;20054;-81
2023/03/19 05:54:49;;;;;;;8.18;4.40;;;9.10;1.00;;;;;;4964726;28;20507;-81
2023/03/19 05:57:31;;;;;;;6.93;4.25;;;9.10;1.00;;;;;;4999643;28;20045;-81
2023/03/19 06:00:07;;;;;;;7.45;4.57;;;9.10;1.00;;;;;;4979719;28;20399;-82
2023/03/19 06:02:35;;;;;;;7.50;4.55;;;9.20;1.00;;;;;;5002891;28;20471;-81
2023/03/19 06:05:23;;;;;;;7.85;4.65;;;9.20;1.00;;;;;;4982870;28;20053;-81
2023/03/19 06:07:52;;;;;;;8.40;4.53;;;9.30;1.00;;;;;;4985846;28;20487;-80
2023/03/19 06:10:28;;;;;;;8.40;4.70;;;9.30;1.00;;;;;;5002154;28;20060;-81
2023/03/19 06:12:57;;;;;;;9.20;4.30;;;9.30;1.00;;;;;;4980487;28;20049;-81
2023/03/19 06:15:48;;;;;;;9.65;5.18;;;9.40;1.00;;;;;;4994411;28;20054;-81
2023/03/19 06:18:22;;;;;;;12.52;5.65;;;9.40;1.00;;;;;;4983092;28;20038;-81
2023/03/19 06:20:48;;;;;;;9.32;4.70;;;9.40;1.00;;;;;;4990205;28;20046;-81
2023/03/19 06:23:16;;;;;;;10.52;4.25;;;9.50;1.00;;;;;;4998536;28;20069;-80
2023/03/19 06:25:42;;;;;;;7.25;4.85;;;9.50;1.00;;;;;;5003627;28;20046;-81
2023/03/19 06:28:09;;;;;;;9.27;4.72;;;9.50;1.00;;;;;;5004327;28;20479;-82
2023/03/19 06:30:39;;;;;;;11.07;7.15;;;9.50;1.00;;;;;;5004474;28;20479;-81
2023/03/19 06:33:26;;;;;;;11.15;4.97;;;9.50;1.00;;;;;;4992896;28;20034;-80
2023/03/19 06:35:53;;;;;;;7.18;4.85;;;9.60;1.00;;;;;;5001339;28;20481;-81
2023/03/19 06:38:20;;;;;;;30.27;22.02;;;9.70;1.00;;;;;;5010623;28;20074;-81
2023/03/19 06:40:47;;;;;;;12.45;6.70;;;9.70;1.00;;;;;;4990853;28;20043;-81
2023/03/19 06:43:13;;;;;;;10.43;5.53;;;9.80;1.00;;;;;;4996992;28;20061;-81
2023/03/19 06:45:39;;;;;;;8.13;4.88;;;9.90;1.00;;;;;;5003552;28;20038;-81
2023/03/19 06:48:05;;;;;;;7.85;4.63;;;9.90;1.00;;;;;;5008772;28;20037;-81
2023/03/19 06:50:32;;;;;;;11.90;4.50;;;10.00;1.00;;;;;;5014617;28;20026;-81
2023/03/19 06:52:58;;;;;;;6.45;4.35;;;10.10;1.00;;;;;;5004641;28;20049;-81
2023/03/19 06:55:24;;;;;;;7.18;4.55;;;10.20;1.00;;;;;;5007491;28;20034;-81
2023/03/19 06:57:50;;;;;;;7.28;4.10;;;10.30;1.00;;;;;;5022252;28;20041;-81
2023/03/19 07:00:18;;;;;;;6.88;4.63;;;10.40;1.00;;;;;;5002734;28;20399;-81
2023/03/19 07:02:44;;;;;;;9.60;4.75;;;10.60;1.00;;;;;;5006946;28;20404;-81
2023/03/19 07:05:10;;;;;;;9.30;4.47;;;10.70;99.90;;;;;;5009975;28;20053;-82
2023/03/19 07:07:36;;;;;;;12.30;4.90;;;10.80;99.90;;;;;;5013238;28;20022;-81
2023/03/19 07:10:03;;;;;;;7.75;4.65;;;10.90;99.90;;;;;;5006750;28;20038;-81
2023/03/19 07:12:30;;;;;;;7.63;4.38;;;10.90;99.90;;;;;;4998856;28;20045;-81
2023/03/19 07:14:56;;;;;;;8.02;4.85;;;11.00;99.90;;;;;;5005368;28;20030;-81
2023/03/19 07:17:26;;;;;;;14.38;4.88;;;11.00;99.90;;;;;;4998063;28;20041;-81
2023/03/19 07:19:52;;;;;;;10.52;4.57;;;11.10;99.90;;;;;;4984843;28;20034;-81
2023/03/19 07:22:18;;;;;;;9.82;4.55;;;11.10;99.90;;;;;;4998685;28;20479;-81
2023/03/19 07:24:44;;;;;;;11.27;5.15;;;11.20;99.90;;;;;;5001595;28;20022;-79
2023/03/19 07:27:11;;;;;;;7.05;4.60;;;11.20;99.90;;;;;;4992995;28;20058;-78
2023/03/19 07:29:37;;;;;;;9.25;4.72;;;11.20;99.90;;;;;;5005122;28;20041;-79
2023/03/19 07:32:03;;;;;;;8.57;4.80;;;11.30;99.90;;;;;;5005351;28;20034;-78
2023/03/19 07:34:29;;;;;;;7.47;4.50;;;11.30;99.90;;;;;;5003659;28;20030;-78
2023/03/19 07:36:56;;;;;;;8.68;4.82;;;11.30;99.90;;;;;;4997356;28;20030;-78
2023/03/19 07:39:22;;;;;;;7.15;4.07;;;11.40;99.90;;;;;;4984978;28;20475;-76
2023/03/19 07:41:48;;;;;;;6.65;4.30;;;11.50;99.90;;;;;;5001767;28;20041;-77
2023/03/19 07:44:15;;;;;;;7.38;4.88;;;11.60;99.90;;;;;;4986218;28;20049;-77
2023/03/19 07:46:42;;;;;;;10.40;5.32;;;11.60;99.90;;;;;;5003513;28;20034;-78
2023/03/19 07:49:08;;;;;;;7.13;4.10;;;11.70;99.90;;;;;;4993050;28;20046;-78
2023/03/19 07:51:34;;;;;;;7.00;4.65;;;11.70;99.90;;;;;;4974178;28;20042;-78
2023/03/19 07:54:00;;;;;;;8.88;4.60;;;11.70;99.90;;;;;;4990864;28;20042;-77
2023/03/19 07:56:26;;;;;;;8.68;3.97;;;11.70;99.90;;;;;;4991038;28;20049;-79
2023/03/19 07:58:52;;;;;;;8.55;5.18;;;11.80;99.90;;;;;;4990024;28;20376;-79
2023/03/19 08:01:19;;;;;;;8.30;4.75;;;11.90;99.90;;;;;;4991412;28;20498;-79
2023/03/19 08:03:47;;;;;;;9.07;5.43;;;12.00;99.90;;;;;;4992420;28;20026;-79
2023/03/19 08:06:15;;;;;;;8.05;4.28;;;12.10;99.90;;;;;;4990445;28;20038;-80
2023/03/19 08:08:42;;;;;;;9.20;5.30;;;12.10;99.90;;;;;;4991295;28;20041;-79
2023/03/19 08:11:08;;;;;;;11.30;5.05;;;12.20;99.90;;;;;;4991892;28;20026;-79
2023/03/19 08:13:34;;;;;;;13.63;6.97;;;12.40;99.90;;;;;;4990742;28;20490;-80
2023/03/19 08:16:00;;;;;;;8.23;4.65;;;12.60;99.90;;;;;;4992924;28;20474;-80
2023/03/19 08:18:26;;;;;;;8.88;4.50;;;12.80;99.90;;;;;;4989523;28;20053;-82
2023/03/19 08:20:52;;;;;;;7.80;4.18;;;13.00;99.90;;;;;;4993425;28;20030;-78
2023/03/19 08:23:19;;;;;;;6.68;3.90;;;13.20;99.90;;;;;;4990194;28;20038;-78
2023/03/19 08:25:45;;;;;;;8.52;4.72;;;13.30;99.90;;;;;;4992019;28;20042;-78
2023/03/19 08:28:11;;;;;;;8.15;4.78;;;13.40;99.90;;;;;;4989344;28;20057;-78
2023/03/19 08:30:38;;;;;;;9.20;4.88;;;13.50;99.90;;;;;;4990627;28;20038;-78
2023/03/19 08:33:04;;;;;;;8.07;4.07;;;13.60;99.90;;;;;;4991269;28;20030;-80
2023/03/19 08:35:31;;;;;;;8.20;4.03;;;13.80;99.90;;;;;;4991894;28;20034;-78
2023/03/19 08:37:57;;;;;;;6.22;3.65;;;13.80;99.90;;;;;;5000840;28;20041;-77
2023/03/19 08:40:23;;;;;;;9.50;4.38;;;13.80;99.90;;;;;;4992531;28;20041;-77
2023/03/19 08:42:49;;;;;;;7.25;3.83;;;13.90;99.90;;;;;;4990340;28;20402;-77
2023/03/19 08:45:16;;;;;;;4.78;3.33;;;14.00;99.90;;;;;;4990679;28;20030;-78
2023/03/19 08:47:42;;;;;;;5.10;3.25;;;14.10;99.90;;;;;;4989342;28;20037;-78
2023/03/19 08:50:09;;;;;;;5.75;3.03;;;14.30;99.90;;;;;;4973148;28;20472;-78
2023/03/19 08:52:35;;;;;;;6.80;3.75;;;14.40;99.90;;;;;;4990858;28;20038;-77
2023/03/19 08:55:02;;;;;;;7.18;3.67;;;14.50;99.90;;;;;;4991734;28;20033;-77
2023/03/19 08:57:30;;;;;;;5.03;3.67;;;14.80;99.90;;;;;;4989362;28;20042;-78
2023/03/19 08:59:56;;;;;;;6.93;3.53;;;15.30;99.90;;;;;;4990684;28;20475;-78
2023/03/19 09:02:22;;;;;;;8.60;2.95;;;15.80;99.90;;;;;;4991263;28;20041;-78
2023/03/19 09:04:52;;;;;;;6.53;3.47;;;15.90;99.90;;;;;;4988792;28;20037;-80
2023/03/19 09:07:18;;;;;;;4.30;2.65;;;15.90;99.90;;;;;;4988288;28;20045;-79
2023/03/19 09:09:47;;;;;;;5.97;3.50;;;15.80;99.90;;;;;;4990358;28;20022;-80
2023/03/19 09:12:15;;;;;;;6.15;3.30;;;15.80;99.90;;;;;;4990157;28;20038;-77
2023/03/19 09:14:42;;;;;;;7.10;3.17;;;15.50;99.90;;;;;;4990404;28;20479;-80
2023/03/19 09:17:09;;;;;;;6.75;2.85;;;15.50;99.90;;;;;;4989714;28;20049;-79
2023/03/19 09:19:36;;;;;;;5.50;2.90;;;15.50;99.90;;;;;;4989834;28;20034;-81
2023/03/19 09:22:03;;;;;;;5.65;3.08;;;15.50;99.90;;;;;;4987956;28;20042;-81
2023/03/19 09:24:32;;;;;;;6.78;3.13;;;15.60;99.90;;;;;;4989026;28;20413;-79
2023/03/19 09:26:59;;;;;;;5.90;2.50;;;15.40;99.90;;;;;;4989580;28;20034;-78
2023/03/19 09:29:25;;;;;;;3.40;1.77;;;15.30;99.90;;;;;;4990192;28;20483;-81
2023/03/19 09:31:51;;;;;;;3.05;1.52;;;15.20;99.90;;;;;;4976903;28;20463;-79
2023/03/19 09:34:17;;;;;;;3.33;1.70;;;15.20;99.90;;;;;;4992777;28;20038;-79
2023/03/19 09:36:43;;;;;;;3.35;1.77;;;15.30;99.90;;;;;;4992125;28;20037;-78
2023/03/19 09:39:09;;;;;;;3.95;1.70;;;15.40;99.90;;;;;;4990329;28;20038;-82
2023/03/19 09:42:17;;;;;;;5.40;1.83;;;15.50;99.90;;;;;;4972507;28;20389;-78
2023/03/19 09:44:45;;;;;;;4.43;1.80;;;15.60;99.90;;;;;;4990090;28;20466;-77
2023/03/19 09:47:31;;;;;;;3.80;1.73;;;15.80;99.90;;;;;;4991981;28;20044;-78
2023/03/19 09:50:21;;;;;;;3.10;1.38;;;15.90;99.90;;;;;;4989735;28;20034;-79
2023/03/19 09:52:50;;;;;;;3.40;1.17;;;16.20;99.90;;;;;;4991206;28;20038;-81
2023/03/19 09:55:47;;;;;;;4.82;1.50;;;16.70;99.90;;;;;;4989241;28;20114;-78
2023/03/19 09:58:31;;;;;;;3.15;1.15;;;17.10;99.90;;;;;;4990021;28;20033;-78
2023/03/19 10:00:59;;;;;;;2.40;1.30;;;17.20;99.90;;;;;;4989602;28;20038;-79
2023/03/19 10:04:14;;;;;;;2.25;1.00;;;17.20;99.90;;;;;;4990911;28;20026;-78
2023/03/19 10:06:40;;;;;;;6.72;1.30;;;17.00;99.90;;;;;;4964046;28;20058;-77
2023/03/19 10:09:27;;;;;;;4.25;1.52;;;16.80;99.90;;;;;;4990015;28;20472;-79
2023/03/19 10:12:16;;;;;;;2.50;1.17;;;17.00;99.90;;;;;;4989254;28;20391;-79
2023/03/19 10:15:20;;;;;;;3.25;1.60;;;17.10;99.90;;;;;;4972055;28;20030;-78
2023/03/19 10:18:14;;;;;;;5.85;1.70;;;17.60;99.90;;;;;;4988923;28;20042;-79
2023/03/19 10:20:59;;;;;;;5.72;1.30;;;17.30;99.90;;;;;;4993588;28;20299;-78
2023/03/19 10:23:31;;;;;;;5.90;1.30;;;17.60;99.90;;;;;;4981810;28;20030;-77
2023/03/19 10:25:59;;;;;;;3.30;1.20;;;18.00;99.90;;;;;;5009031;28;20034;-81
2023/03/19 10:28:28;;;;;;;2.75;1.55;;;17.90;99.90;;;;;;5003556;28;20050;-77
2023/03/19 10:31:18;;;;;;;2.50;1.02;;;17.80;99.90;;;;;;5005103;28;20039;-77
2023/03/19 10:33:57;;;;;;;;;;;17.90;99.90;;;;;;5002234;28;20475;-76
2023/03/19 10:36:29;;;;;;;4.68;1.85;;;17.80;99.90;;;;;;4986864;28;19909;-77
2023/03/19 10:38:55;;;;;;;3.80;1.80;;;17.70;99.90;;;;;;5005913;28;20026;-76
2023/03/19 10:42:00;;;;;;;4.13;1.00;;;17.70;99.90;;;;;;5003135;28;20041;-81
2023/03/19 10:44:33;;;;;;;6.30;1.58;;;17.70;99.90;;;;;;4941663;28;20043;-77
2023/03/19 10:47:12;;;;;;;4.97;1.60;;;17.70;99.90;;;;;;4994464;28;20526;-78
2023/03/19 10:49:39;;;;;;;3.70;1.60;;;17.70;99.90;;;;;;4983213;28;20030;-76
2023/03/19 10:52:23;;;;;;;6.03;1.67;;;17.80;99.90;;;;;;4992804;28;20050;-75
2023/03/19 10:54:55;;;;;;;5.03;1.80;;;17.70;99.90;;;;;;4995141;28;20395;-77
2023/03/19 10:57:25;;;;;;;3.40;1.58;;;17.90;99.90;;;;;;4994289;28;20030;-76
2023/03/19 10:59:51;;;;;;;2.78;1.40;;;17.90;99.90;;;;;;4991574;28;20034;-78
2023/03/19 11:02:26;;;;;;;4.50;1.42;;;17.80;99.90;;;;;;4993222;28;20035;-76
2023/03/19 11:05:25;;;;;;;3.03;2.25;;;17.70;99.90;;;;;;4993830;28;20041;-76
2023/03/19 11:08:03;;;;;;;5.05;1.38;;;17.80;99.90;;;;;;4993621;28;20045;-77
2023/03/19 11:10:34;;;;;;;2.63;1.58;;;17.90;99.90;;;;;;4992641;28;20038;-77
2023/03/19 11:13:14;;;;;;;4.57;1.65;;;17.70;99.90;;;;;;4992855;28;20026;-77
2023/03/19 11:15:41;;;;;;;5.03;2.42;;;17.70;99.90;;;;;;4993606;28;20037;-77
2023/03/19 11:18:44;;;;;;;3.25;1.48;;;17.60;99.90;;;;;;4991750;28;20038;-76
2023/03/19 11:21:29;;;;;;;5.00;1.75;;;17.60;99.90;;;;;;4991096;28;20047;-77
2023/03/19 11:24:02;;;;;;;3.35;1.80;;;17.60;99.90;;;;;;4993029;28;20038;-76
2023/03/19 11:26:28;;;;;;;3.10;1.52;;;17.90;99.90;;;;;;4972850;28;20058;-76
2023/03/19 11:29:01;;;;;;;3.97;1.50;;;18.10;99.90;;;;;;4989922;28;20049;-77
2023/03/19 11:31:47;;;;;;;4.28;2.10;;;18.20;99.90;;;;;;4990763;28;20034;-75
2023/03/19 11:34:32;;;;;;;3.45;1.25;;;18.20;99.90;;;;;;4992542;28;20364;-75
2023/03/19 11:37:02;;;;;;;3.55;1.42;;;18.20;99.90;;;;;;4993054;28;20030;-75
2023/03/19 11:40:12;;;;;;;4.75;1.58;;;18.00;99.90;;;;;;4991418;28;20030;-77
2023/03/19 11:43:16;;;;;;;5.00;1.98;;;17.80;99.90;;;;;;4973960;28;20038;-78
2023/03/19 11:45:48;;;;;;;5.90;1.77;;;17.80;99.90;;;;;;4990260;28;20058;-76
2023/03/19 11:48:50;;;;;;;5.35;1.83;;;17.80;99.90;;;;;;4992204;28;20057;-76
2023/03/19 11:51:16;;;;;;;2.42;1.38;;;17.70;99.90;;;;;;4990014;28;20050;-77
2023/03/19 11:53:51;;;;;;;3.40;1.52;;;17.50;99.90;;;;;;4992666;28;20049;-76
2023/03/19 11:56:40;;;;;;;4.57;1.50;;;17.30;99.90;;;;;;4991717;28;20034;-76
2023/03/19 11:59:47;;;;;;;4.03;1.67;;;17.20;99.90;;;;;;4990781;28;20037;-76
2023/03/19 12:02:39;;;;;;;3.95;1.55;;;17.00;99.90;;;;;;4967844;28;20051;-76
2023/03/19 12:05:27;;;;;;;3.05;1.60;;;16.70;99.90;;;;;;4975377;28;20026;-75
2023/03/19 12:08:06;;;;;;;3.38;1.50;;;16.70;99.90;;;;;;4991379;28;20475;-76
2023/03/19 12:11:03;;;;;;;3.67;1.25;;;16.70;99.90;;;;;;4989064;28;20023;-75
2023/03/19 12:13:41;;;;;;;8.35;1.65;;;16.80;99.90;;;;;;4998611;28;20034;-77
2023/03/19 12:16:32;;;;;;;5.57;1.40;;;16.80;99.90;;;;;;4991001;28;20026;-75
2023/03/19 12:19:17;;;;;;;3.58;1.08;;;16.80;99.90;;;;;;4990593;28;20380;-75
2023/03/19 12:22:13;;;;;;;2.28;1.33;;;16.80;99.90;;;;;;4993117;28;20030;-74
2023/03/19 12:24:51;;;;;;;4.80;1.33;;;16.90;99.90;;;;;;4969383;28;20045;-76
2023/03/19 12:27:27;;;;;;;3.30;1.50;;;17.00;99.90;;;;;;4991676;28;20058;-75
2023/03/19 12:30:12;;;;;;;2.83;1.40;;;17.10;99.90;;;;;;4988030;28;20501;-77
2023/03/19 12:33:06;;;;;;;3.50;1.48;;;17.30;99.90;;;;;;4991050;28;20112;-77
2023/03/19 12:35:37;;;;;;;3.40;1.80;;;17.30;99.90;;;;;;4992437;28;20034;-85
2023/03/19 12:38:24;;;;;;;3.78;1.33;;;17.30;99.90;;;;;;4974667;28;20145;-78
2023/03/19 12:41:04;;;;;;;3.60;1.30;;;17.00;99.90;;;;;;4990918;28;20086;-77
2023/03/19 12:43:35;;;;;;;3.53;1.48;;;16.90;99.90;;;;;;4989486;28;20042;-82
2023/03/19 12:46:10;;;;;;;5.63;1.83;;;16.60;99.90;;;;;;4990400;28;20030;-76
2023/03/19 12:48:43;;;;;;;3.53;1.55;;;16.50;99.90;;;;;;4989852;28;20030;-77
2023/03/19 12:51:12;;;;;;;3.70;1.48;;;16.30;99.90;;;;;;4990031;28;20033;-79
2023/03/19 12:53:52;;;;;;;3.83;1.80;;;16.20;99.90;;;;;;4988940;28;20026;-77
2023/03/19 12:56:26;;;;;;;4.15;1.40;;;16.00;99.90;;;;;;4993503;28;20034;-76
2023/03/19 12:59:24;;;;;;;3.00;1.52;;;15.90;99.90;;;;;;4986825;28;20518;-80
2023/03/19 13:01:56;;;;;;;4.95;1.60;;;15.40;99.90;;;;;;4987407;28;20034;-77
2023/03/19 13:04:30;;;;;;;5.65;1.48;;;15.20;99.90;;;;;;4990401;28;20039;-76
2023/03/19 13:07:09;;;;;;;5.43;1.40;;;14.90;99.90;;;;;;4987452;28;20030;-78
2023/03/19 13:10:07;;;;;;;6.88;2.10;;;14.60;99.90;;;;;;4987764;28;20034;-77
2023/03/19 13:12:37;;;;;;;1.95;0.93;;;14.50;99.90;;;;;;4991482;28;20030;-78
2023/03/19 13:15:15;;;;;;;2.30;1.47;;;14.50;99.90;;;;;;4990166;28;20031;-77
2023/03/19 13:18:00;;;;;;;2.40;1.10;;;14.30;99.90;;;;;;4991122;28;20599;-80